Kimmins, Tennessee
Current Conditions -  °F | °C
As of 10:55 AM on Saturday 22 Nov 2014 (Local Time) from KMRC Reporting Station
Few Clouds Few Clouds  
Wind Chill: 63°   Ceiling: Unl
Heat Index: 63°   Visibility: 10mi
Dew Point: 36°   Wind: 10mph
Humidity: 37%   Direction: 180°S
Pressure: 30.28"   Gusts: NA
Location:  35.5255°N, 87.548°W
Report Text: KMRC 221655Z AUTO 18009KT 10SM FEW095 17/02 A3028 RMK
Loading
Personal Weather Stations






























Interactive Weather Map New forecast layout! Learn more

10-Day Weather Forecast

Advertisements
Track Severe Weather on mobile